Albany, GA

11:43 PM EDT on July 24, 2014 (GMT -0400)
Souther (KACJ) Elev 469 ft | 32.11 °N, 84.19 °W | Change Station

Current weather conditions updated 8 minutes ago

Scattered Clouds
Scattered Clouds
79 °F
Feels Like 79 °F
N
6
Wind Variable Wind from SW

Tomorrow is forecast to be nearly the same temperature as today.

Today
High -- | Low -- °F
--% Chance of Precip.
Yesterday
High -- | Low -- °F
Precip. -- in
6:47 AM 8:38 PM
Waning Crescent, 3% visible
Pressure 30.01 in
Visibility 10.0 miles
Clouds Scattered Clouds 9000 ft
Dew Point 72 °F
Humidity 78%
Rainfall 0.00 in
Snow Depth Not available.
UV 0 out of 12
Pollen 4.70 out of 12
Air Quality Not available.
Flu Activity Not available.
METAR KACJ 250335Z AUTO 23005KT 10SM SCT090 26/22 A3001 RMK AO2

More Conditions Fewer Conditions

Pressure 30.01 in
Visibility 10.0 miles
Clouds Scattered Clouds 9000 ft
Dew Point 72 °F
Humidity 78%
Rainfall 0.00 in
Snow Depth Not available.
UV 0 out of 12
Pollen 4.70 out of 12
Air Quality Not available.
Flu Activity Not available.
METAR KACJ 250335Z AUTO 23005KT 10SM SCT090 26/22 A3001 RMK AO2

More Conditions Fewer Conditions

10-Day Weather Forecast

Almanac

Astronomy

Jul. 24, 2014 Rise Set
Actual Time 6:47 AM EDT 8:38 PM EDT
Civil Twilight 6:20 AM EDT 9:05 PM EDT
Nautical Twilight 5:48 AM EDT 9:37 PM EDT
Astronomical Twilight 5:13 AM EDT 10:12 PM EDT
Moon 4:53 AM EDT (7/24) 6:54 PM EDT (7/24)
Length of Visible Light 14h 44m
Length of Day
13h 50m
Tomorrow will be 1m 15s shorter.
Waning Crescent, 3% of the Moon is Illuminated
Today
Waning Crescent
Jul 26
New
Aug 3
First Quarter
Aug 10
Full
Aug 17
Last Quarter

Today's Extremes

State Highs State Lows

Community

WunderPhotos

Upload Photos

1,737,231 photos uploaded!

Nearby

Snow Depth

Station Depth Elevation
No new snow has been reported.

Earthquake Activity

City Distance Mag. Time & Date
No recent earthquake activity has been reported nearby.
Minimum magnitude displayed is 2.5.

Coastal Water Temperatures

Place Temperature
No Stations Reporting

Nearby Weather Stations

Station Location Temp. Heat Index Dew Point Humidity Wind Precip. Elev Updated Type
Grand Island Club, Albany, GA 77.2 °F 79 °F 74 °F 90% ESE  at  0.0 mph 0.00 in / hr 259 ft 11:42 PM EDT Normal
Worth County High School, Sylvester, GA 77.5 °F 79 °F 74 °F 88% East  at  2.0 mph 0.00 in / hr 436 ft 11:40 PM EDT Normal

Show More Stations Show Fewer Stations